sensor_id;sensor_type;location;lat;lon;timestamp;P1;durP1;ratioP1;P2;durP2;ratioP2
55659;SDS011;41534;53.550;9.964;2024-03-22T00:02:05;7.78;;;7.15;;
55659;SDS011;41534;53.550;9.964;2024-03-22T00:05:05;8.27;;;7.55;;
55659;SDS011;41534;53.550;9.964;2024-03-22T00:08:06;8.45;;;7.65;;
55659;SDS011;41534;53.550;9.964;2024-03-22T00:11:06;8.18;;;7.47;;
55659;SDS011;41534;53.550;9.964;2024-03-22T00:14:07;7.75;;;7.05;;
55659;SDS011;41534;53.550;9.964;2024-03-22T00:17:07;7.97;;;7.28;;
55659;SDS011;41534;53.550;9.964;2024-03-22T00:20:08;8.32;;;7.53;;
55659;SDS011;41534;53.550;9.964;2024-03-22T00:23:08;7.90;;;7.18;;
55659;SDS011;41534;53.550;9.964;2024-03-22T00:26:09;8.02;;;7.30;;
55659;SDS011;41534;53.550;9.964;2024-03-22T00:29:09;7.95;;;7.30;;
55659;SDS011;41534;53.550;9.964;2024-03-22T00:32:09;8.27;;;7.47;;
55659;SDS011;41534;53.550;9.964;2024-03-22T00:35:10;7.45;;;6.75;;
55659;SDS011;41534;53.550;9.964;2024-03-22T00:38:10;7.60;;;6.90;;
55659;SDS011;41534;53.550;9.964;2024-03-22T00:41:10;7.80;;;6.95;;
55659;SDS011;41534;53.550;9.964;2024-03-22T00:44:11;7.95;;;6.93;;
55659;SDS011;41534;53.550;9.964;2024-03-22T00:47:11;7.13;;;6.40;;
55659;SDS011;41534;53.550;9.964;2024-03-22T00:50:11;8.57;;;7.78;;
55659;SDS011;41534;53.550;9.964;2024-03-22T00:53:12;8.15;;;7.32;;
55659;SDS011;41534;53.550;9.964;2024-03-22T00:56:12;7.18;;;6.57;;
55659;SDS011;41534;53.550;9.964;2024-03-22T00:59:12;6.88;;;6.07;;
55659;SDS011;41534;53.550;9.964;2024-03-22T01:02:12;7.53;;;6.72;;
55659;SDS011;41534;53.550;9.964;2024-03-22T01:05:13;7.32;;;6.72;;
55659;SDS011;41534;53.550;9.964;2024-03-22T01:08:13;7.32;;;6.63;;
55659;SDS011;41534;53.550;9.964;2024-03-22T01:11:14;7.65;;;6.80;;
55659;SDS011;41534;53.550;9.964;2024-03-22T01:14:14;6.80;;;6.20;;
55659;SDS011;41534;53.550;9.964;2024-03-22T01:17:14;7.55;;;6.85;;
55659;SDS011;41534;53.550;9.964;2024-03-22T01:20:15;7.28;;;6.68;;
55659;SDS011;41534;53.550;9.964;2024-03-22T01:23:15;7.05;;;6.45;;
55659;SDS011;41534;53.550;9.964;2024-03-22T01:26:15;6.57;;;5.85;;
55659;SDS011;41534;53.550;9.964;2024-03-22T01:29:16;6.45;;;5.90;;
55659;SDS011;41534;53.550;9.964;2024-03-22T01:32:16;6.50;;;5.53;;
55659;SDS011;41534;53.550;9.964;2024-03-22T01:35:16;6.13;;;5.53;;
55659;SDS011;41534;53.550;9.964;2024-03-22T01:38:17;6.68;;;5.50;;
55659;SDS011;41534;53.550;9.964;2024-03-22T01:41:17;5.60;;;5.10;;
55659;SDS011;41534;53.550;9.964;2024-03-22T01:44:17;6.13;;;5.63;;
55659;SDS011;41534;53.550;9.964;2024-03-22T01:47:18;6.68;;;5.10;;
55659;SDS011;41534;53.550;9.964;2024-03-22T01:50:18;5.57;;;5.07;;
55659;SDS011;41534;53.550;9.964;2024-03-22T01:53:18;5.45;;;4.80;;
55659;SDS011;41534;53.550;9.964;2024-03-22T01:56:19;5.05;;;4.55;;
55659;SDS011;41534;53.550;9.964;2024-03-22T01:59:19;5.70;;;5.20;;
55659;SDS011;41534;53.550;9.964;2024-03-22T02:02:20;5.25;;;4.82;;
55659;SDS011;41534;53.550;9.964;2024-03-22T02:05:21;5.53;;;5.03;;
55659;SDS011;41534;53.550;9.964;2024-03-22T02:08:21;5.35;;;4.85;;
55659;SDS011;41534;53.550;9.964;2024-03-22T02:11:21;4.88;;;4.47;;
55659;SDS011;41534;53.550;9.964;2024-03-22T02:14:22;6.35;;;5.30;;
55659;SDS011;41534;53.550;9.964;2024-03-22T02:17:22;5.10;;;4.60;;
55659;SDS011;41534;53.550;9.964;2024-03-22T02:20:23;5.05;;;4.55;;
55659;SDS011;41534;53.550;9.964;2024-03-22T02:23:31;5.60;;;5.10;;
55659;SDS011;41534;53.550;9.964;2024-03-22T02:26:35;6.97;;;5.13;;
55659;SDS011;41534;53.550;9.964;2024-03-22T02:29:35;5.68;;;5.00;;
55659;SDS011;41534;53.550;9.964;2024-03-22T02:32:35;5.40;;;4.90;;
55659;SDS011;41534;53.550;9.964;2024-03-22T02:35:35;5.32;;;4.82;;
55659;SDS011;41534;53.550;9.964;2024-03-22T02:38:36;4.80;;;4.40;;
55659;SDS011;41534;53.550;9.964;2024-03-22T02:41:36;5.60;;;5.05;;
55659;SDS011;41534;53.550;9.964;2024-03-22T02:44:36;5.90;;;5.35;;
55659;SDS011;41534;53.550;9.964;2024-03-22T02:47:36;5.93;;;5.43;;
55659;SDS011;41534;53.550;9.964;2024-03-22T02:50:37;5.63;;;5.13;;
55659;SDS011;41534;53.550;9.964;2024-03-22T02:53:37;6.00;;;5.40;;
55659;SDS011;41534;53.550;9.964;2024-03-22T02:56:38;6.20;;;5.60;;
55659;SDS011;41534;53.550;9.964;2024-03-22T02:59:38;6.25;;;5.65;;
55659;SDS011;41534;53.550;9.964;2024-03-22T03:02:38;5.72;;;5.32;;
55659;SDS011;41534;53.550;9.964;2024-03-22T03:05:38;5.72;;;5.22;;
55659;SDS011;41534;53.550;9.964;2024-03-22T03:08:39;6.78;;;6.03;;
55659;SDS011;41534;53.550;9.964;2024-03-22T03:11:39;6.50;;;5.90;;
55659;SDS011;41534;53.550;9.964;2024-03-22T03:14:40;6.45;;;5.85;;
55659;SDS011;41534;53.550;9.964;2024-03-22T03:17:40;6.40;;;5.80;;
55659;SDS011;41534;53.550;9.964;2024-03-22T03:20:40;6.50;;;5.97;;
55659;SDS011;41534;53.550;9.964;2024-03-22T03:23:40;5.65;;;5.25;;
55659;SDS011;41534;53.550;9.964;2024-03-22T03:26:41;6.50;;;5.82;;
55659;SDS011;41534;53.550;9.964;2024-03-22T03:29:41;6.80;;;6.10;;
55659;SDS011;41534;53.550;9.964;2024-03-22T03:32:41;5.25;;;4.75;;
55659;SDS011;41534;53.550;9.964;2024-03-22T03:35:45;6.88;;;6.22;;
55659;SDS011;41534;53.550;9.964;2024-03-22T03:38:46;6.45;;;5.95;;
55659;SDS011;41534;53.550;9.964;2024-03-22T03:41:46;7.18;;;6.47;;
55659;SDS011;41534;53.550;9.964;2024-03-22T03:44:46;6.90;;;6.30;;
55659;SDS011;41534;53.550;9.964;2024-03-22T03:47:46;6.82;;;6.13;;
55659;SDS011;41534;53.550;9.964;2024-03-22T03:50:53;6.78;;;6.18;;
55659;SDS011;41534;53.550;9.964;2024-03-22T03:53:54;7.13;;;6.53;;
55659;SDS011;41534;53.550;9.964;2024-03-22T03:56:54;7.20;;;6.57;;
55659;SDS011;41534;53.550;9.964;2024-03-22T03:59:55;7.20;;;6.60;;
55659;SDS011;41534;53.550;9.964;2024-03-22T04:02:55;6.93;;;6.22;;
55659;SDS011;41534;53.550;9.964;2024-03-22T04:05:56;7.88;;;7.18;;
55659;SDS011;41534;53.550;9.964;2024-03-22T04:08:57;9.65;;;7.28;;
55659;SDS011;41534;53.550;9.964;2024-03-22T04:11:57;7.70;;;7.00;;
55659;SDS011;41534;53.550;9.964;2024-03-22T04:14:57;8.18;;;7.45;;
55659;SDS011;41534;53.550;9.964;2024-03-22T04:17:58;7.72;;;7.13;;
55659;SDS011;41534;53.550;9.964;2024-03-22T04:20:58;8.68;;;7.82;;
55659;SDS011;41534;53.550;9.964;2024-03-22T04:23:59;8.15;;;7.35;;
55659;SDS011;41534;53.550;9.964;2024-03-22T04:26:59;7.88;;;7.18;;
55659;SDS011;41534;53.550;9.964;2024-03-22T04:30:00;8.57;;;7.78;;
55659;SDS011;41534;53.550;9.964;2024-03-22T04:33:00;8.35;;;7.57;;
55659;SDS011;41534;53.550;9.964;2024-03-22T04:36:00;8.35;;;7.55;;
55659;SDS011;41534;53.550;9.964;2024-03-22T04:39:01;8.00;;;7.30;;
55659;SDS011;41534;53.550;9.964;2024-03-22T04:42:01;8.50;;;7.68;;
55659;SDS011;41534;53.550;9.964;2024-03-22T04:45:02;7.93;;;7.32;;
55659;SDS011;41534;53.550;9.964;2024-03-22T04:48:03;8.80;;;7.97;;
55659;SDS011;41534;53.550;9.964;2024-03-22T04:51:04;8.38;;;7.75;;
55659;SDS011;41534;53.550;9.964;2024-03-22T04:54:04;8.75;;;7.90;;
55659;SDS011;41534;53.550;9.964;2024-03-22T04:57:04;8.70;;;8.05;;
55659;SDS011;41534;53.550;9.964;2024-03-22T05:00:05;8.65;;;7.88;;
55659;SDS011;41534;53.550;9.964;2024-03-22T05:03:05;8.68;;;7.97;;
55659;SDS011;41534;53.550;9.964;2024-03-22T05:06:06;7.90;;;7.30;;
55659;SDS011;41534;53.550;9.964;2024-03-22T05:09:06;8.35;;;7.65;;
55659;SDS011;41534;53.550;9.964;2024-03-22T05:12:07;8.05;;;7.40;;
55659;SDS011;41534;53.550;9.964;2024-03-22T05:15:07;8.30;;;7.57;;
55659;SDS011;41534;53.550;9.964;2024-03-22T05:18:08;8.05;;;7.45;;
55659;SDS011;41534;53.550;9.964;2024-03-22T05:21:08;8.52;;;7.82;;
55659;SDS011;41534;53.550;9.964;2024-03-22T05:24:08;8.40;;;7.70;;
55659;SDS011;41534;53.550;9.964;2024-03-22T05:27:08;8.90;;;8.10;;
55659;SDS011;41534;53.550;9.964;2024-03-22T05:30:09;8.90;;;8.10;;
55659;SDS011;41534;53.550;9.964;2024-03-22T05:33:10;8.40;;;7.68;;
55659;SDS011;41534;53.550;9.964;2024-03-22T05:36:12;8.95;;;8.25;;
55659;SDS011;41534;53.550;9.964;2024-03-22T05:39:12;9.27;;;8.43;;
55659;SDS011;41534;53.550;9.964;2024-03-22T05:42:13;9.00;;;8.20;;
55659;SDS011;41534;53.550;9.964;2024-03-22T05:45:13;8.55;;;7.85;;
55659;SDS011;41534;53.550;9.964;2024-03-22T05:48:13;10.63;;;9.63;;
55659;SDS011;41534;53.550;9.964;2024-03-22T05:51:14;9.63;;;8.63;;
55659;SDS011;41534;53.550;9.964;2024-03-22T05:54:14;9.18;;;8.38;;
55659;SDS011;41534;53.550;9.964;2024-03-22T05:57:14;8.85;;;8.05;;
55659;SDS011;41534;53.550;9.964;2024-03-22T06:00:15;9.55;;;8.68;;
55659;SDS011;41534;53.550;9.964;2024-03-22T06:03:15;9.23;;;8.50;;
55659;SDS011;41534;53.550;9.964;2024-03-22T06:06:15;9.23;;;8.43;;
55659;SDS011;41534;53.550;9.964;2024-03-22T06:09:16;9.30;;;8.50;;
55659;SDS011;41534;53.550;9.964;2024-03-22T06:12:16;10.45;;;9.45;;
55659;SDS011;41534;53.550;9.964;2024-03-22T06:15:16;9.23;;;8.32;;
55659;SDS011;41534;53.550;9.964;2024-03-22T06:18:16;9.52;;;8.63;;
55659;SDS011;41534;53.550;9.964;2024-03-22T06:21:17;10.07;;;9.18;;
55659;SDS011;41534;53.550;9.964;2024-03-22T06:24:17;9.23;;;8.48;;
55659;SDS011;41534;53.550;9.964;2024-03-22T06:27:17;9.77;;;8.60;;
55659;SDS011;41534;53.550;9.964;2024-03-22T06:30:18;10.35;;;9.45;;
55659;SDS011;41534;53.550;9.964;2024-03-22T06:33:18;9.77;;;8.85;;
55659;SDS011;41534;53.550;9.964;2024-03-22T06:36:18;9.65;;;8.75;;
55659;SDS011;41534;53.550;9.964;2024-03-22T06:39:18;9.68;;;8.77;;
55659;SDS011;41534;53.550;9.964;2024-03-22T06:42:19;9.90;;;9.00;;
55659;SDS011;41534;53.550;9.964;2024-03-22T06:45:19;9.40;;;8.50;;
55659;SDS011;41534;53.550;9.964;2024-03-22T06:48:19;9.68;;;8.85;;
55659;SDS011;41534;53.550;9.964;2024-03-22T06:51:20;9.18;;;8.38;;
55659;SDS011;41534;53.550;9.964;2024-03-22T06:54:20;9.75;;;8.85;;
55659;SDS011;41534;53.550;9.964;2024-03-22T06:57:20;10.00;;;9.07;;
55659;SDS011;41534;53.550;9.964;2024-03-22T07:00:21;9.80;;;8.88;;
55659;SDS011;41534;53.550;9.964;2024-03-22T07:03:21;9.23;;;8.38;;
55659;SDS011;41534;53.550;9.964;2024-03-22T07:06:21;9.95;;;9.05;;
55659;SDS011;41534;53.550;9.964;2024-03-22T07:09:22;10.60;;;9.65;;
55659;SDS011;41534;53.550;9.964;2024-03-22T07:12:22;9.88;;;9.00;;
55659;SDS011;41534;53.550;9.964;2024-03-22T07:15:23;9.88;;;9.07;;
55659;SDS011;41534;53.550;9.964;2024-03-22T07:18:23;9.43;;;8.60;;
55659;SDS011;41534;53.550;9.964;2024-03-22T07:21:23;9.23;;;8.35;;
55659;SDS011;41534;53.550;9.964;2024-03-22T07:24:24;9.68;;;8.82;;
55659;SDS011;41534;53.550;9.964;2024-03-22T07:27:24;9.90;;;8.77;;
55659;SDS011;41534;53.550;9.964;2024-03-22T07:30:24;12.23;;;9.95;;
55659;SDS011;41534;53.550;9.964;2024-03-22T07:33:25;9.00;;;8.20;;
55659;SDS011;41534;53.550;9.964;2024-03-22T07:36:25;9.25;;;8.45;;
55659;SDS011;41534;53.550;9.964;2024-03-22T07:39:25;10.05;;;9.13;;
55659;SDS011;41534;53.550;9.964;2024-03-22T07:42:25;9.40;;;8.52;;
55659;SDS011;41534;53.550;9.964;2024-03-22T07:45:26;10.73;;;9.63;;
55659;SDS011;41534;53.550;9.964;2024-03-22T07:48:26;9.98;;;9.07;;
55659;SDS011;41534;53.550;9.964;2024-03-22T07:51:26;10.00;;;9.00;;
55659;SDS011;41534;53.550;9.964;2024-03-22T07:54:26;9.73;;;7.72;;
55659;SDS011;41534;53.550;9.964;2024-03-22T07:57:27;19.20;;;6.80;;
55659;SDS011;41534;53.550;9.964;2024-03-22T08:00:27;11.73;;;10.18;;
55659;SDS011;41534;53.550;9.964;2024-03-22T08:03:27;20.30;;;14.45;;
55659;SDS011;41534;53.550;9.964;2024-03-22T08:06:27;21.35;;;17.58;;
55659;SDS011;41534;53.550;9.964;2024-03-22T08:09:28;18.88;;;16.63;;
55659;SDS011;41534;53.550;9.964;2024-03-22T08:12:28;16.35;;;13.52;;
55659;SDS011;41534;53.550;9.964;2024-03-22T08:15:28;18.65;;;14.52;;
55659;SDS011;41534;53.550;9.964;2024-03-22T08:18:29;14.15;;;12.07;;
55659;SDS011;41534;53.550;9.964;2024-03-22T08:21:29;11.77;;;10.57;;
55659;SDS011;41534;53.550;9.964;2024-03-22T08:24:29;9.70;;;8.70;;
55659;SDS011;41534;53.550;9.964;2024-03-22T08:27:29;8.35;;;7.55;;
55659;SDS011;41534;53.550;9.964;2024-03-22T08:30:30;9.25;;;6.43;;
55659;SDS011;41534;53.550;9.964;2024-03-22T08:33:30;6.47;;;5.88;;
55659;SDS011;41534;53.550;9.964;2024-03-22T08:36:30;6.10;;;5.53;;
55659;SDS011;41534;53.550;9.964;2024-03-22T08:39:31;5.15;;;4.65;;
55659;SDS011;41534;53.550;9.964;2024-03-22T08:42:31;5.93;;;4.32;;
55659;SDS011;41534;53.550;9.964;2024-03-22T08:45:31;5.93;;;4.03;;
55659;SDS011;41534;53.550;9.964;2024-03-22T08:48:31;4.50;;;3.42;;
55659;SDS011;41534;53.550;9.964;2024-03-22T08:51:32;6.00;;;3.63;;
55659;SDS011;41534;53.550;9.964;2024-03-22T08:54:32;3.75;;;3.38;;
55659;SDS011;41534;53.550;9.964;2024-03-22T08:57:33;3.25;;;2.97;;
55659;SDS011;41534;53.550;9.964;2024-03-22T09:00:33;3.88;;;3.22;;
55659;SDS011;41534;53.550;9.964;2024-03-22T09:03:33;3.15;;;2.90;;
55659;SDS011;41534;53.550;9.964;2024-03-22T09:06:34;3.33;;;3.03;;
55659;SDS011;41534;53.550;9.964;2024-03-22T09:09:34;4.05;;;3.50;;
55659;SDS011;41534;53.550;9.964;2024-03-22T09:12:34;3.47;;;2.60;;
55659;SDS011;41534;53.550;9.964;2024-03-22T09:15:35;2.92;;;2.67;;
55659;SDS011;41534;53.550;9.964;2024-03-22T09:18:35;3.40;;;3.10;;
55659;SDS011;41534;53.550;9.964;2024-03-22T09:21:36;4.20;;;3.00;;
55659;SDS011;41534;53.550;9.964;2024-03-22T09:24:36;3.72;;;2.95;;
55659;SDS011;41534;53.550;9.964;2024-03-22T09:27:36;4.47;;;4.07;;
55659;SDS011;41534;53.550;9.964;2024-03-22T09:30:40;4.43;;;4.03;;
55659;SDS011;41534;53.550;9.964;2024-03-22T09:33:40;4.93;;;4.03;;
55659;SDS011;41534;53.550;9.964;2024-03-22T09:36:40;6.07;;;4.00;;
55659;SDS011;41534;53.550;9.964;2024-03-22T09:39:41;3.55;;;3.25;;
55659;SDS011;41534;53.550;9.964;2024-03-22T09:42:41;4.68;;;3.17;;
55659;SDS011;41534;53.550;9.964;2024-03-22T09:45:41;4.80;;;3.28;;
55659;SDS011;41534;53.550;9.964;2024-03-22T09:48:42;4.43;;;3.33;;
55659;SDS011;41534;53.550;9.964;2024-03-22T09:51:44;5.55;;;3.42;;
55659;SDS011;41534;53.550;9.964;2024-03-22T09:54:44;5.07;;;3.22;;
55659;SDS011;41534;53.550;9.964;2024-03-22T09:57:45;3.70;;;3.40;;
55659;SDS011;41534;53.550;9.964;2024-03-22T10:00:46;3.60;;;3.15;;
55659;SDS011;41534;53.550;9.964;2024-03-22T10:03:46;5.70;;;3.40;;
55659;SDS011;41534;53.550;9.964;2024-03-22T10:06:47;4.72;;;3.35;;
55659;SDS011;41534;53.550;9.964;2024-03-22T10:09:48;4.45;;;3.05;;
55659;SDS011;41534;53.550;9.964;2024-03-22T10:12:51;3.15;;;2.85;;
55659;SDS011;41534;53.550;9.964;2024-03-22T10:15:51;7.47;;;3.13;;
55659;SDS011;41534;53.550;9.964;2024-03-22T10:18:51;4.10;;;3.00;;
55659;SDS011;41534;53.550;9.964;2024-03-22T10:22:01;4.68;;;3.38;;
55659;SDS011;41534;53.550;9.964;2024-03-22T10:25:04;4.53;;;3.60;;
55659;SDS011;41534;53.550;9.964;2024-03-22T10:28:05;3.50;;;3.20;;
55659;SDS011;41534;53.550;9.964;2024-03-22T10:31:05;4.30;;;3.80;;
55659;SDS011;41534;53.550;9.964;2024-03-22T10:34:05;6.65;;;3.95;;
55659;SDS011;41534;53.550;9.964;2024-03-22T10:37:08;3.95;;;3.55;;
55659;SDS011;41534;53.550;9.964;2024-03-22T10:40:14;6.53;;;4.00;;
55659;SDS011;41534;53.550;9.964;2024-03-22T10:43:14;5.75;;;3.80;;
55659;SDS011;41534;53.550;9.964;2024-03-22T10:46:15;4.20;;;3.80;;
55659;SDS011;41534;53.550;9.964;2024-03-22T10:49:19;5.43;;;3.70;;
55659;SDS011;41534;53.550;9.964;2024-03-22T10:52:20;5.28;;;3.80;;
55659;SDS011;41534;53.550;9.964;2024-03-22T10:58:27;3.90;;;3.60;;
55659;SDS011;41534;53.550;9.964;2024-03-22T11:01:27;5.32;;;4.00;;
55659;SDS011;41534;53.550;9.964;2024-03-22T11:04:29;5.15;;;3.47;;
55659;SDS011;41534;53.550;9.964;2024-03-22T11:07:30;5.63;;;3.40;;
55659;SDS011;41534;53.550;9.964;2024-03-22T11:10:34;7.13;;;4.00;;
55659;SDS011;41534;53.550;9.964;2024-03-22T11:13:41;3.53;;;3.33;;
55659;SDS011;41534;53.550;9.964;2024-03-22T11:16:44;4.70;;;3.60;;
55659;SDS011;41534;53.550;9.964;2024-03-22T11:19:45;3.63;;;3.40;;
55659;SDS011;41534;53.550;9.964;2024-03-22T11:22:45;4.03;;;3.65;;
55659;SDS011;41534;53.550;9.964;2024-03-22T11:25:45;4.20;;;3.80;;
55659;SDS011;41534;53.550;9.964;2024-03-22T11:28:46;4.05;;;3.75;;
55659;SDS011;41534;53.550;9.964;2024-03-22T11:31:46;6.40;;;3.58;;
55659;SDS011;41534;53.550;9.964;2024-03-22T11:34:46;4.00;;;3.70;;
55659;SDS011;41534;53.550;9.964;2024-03-22T11:37:47;3.72;;;3.42;;
55659;SDS011;41534;53.550;9.964;2024-03-22T11:40:47;3.67;;;3.38;;
55659;SDS011;41534;53.550;9.964;2024-03-22T11:43:48;3.63;;;3.33;;
55659;SDS011;41534;53.550;9.964;2024-03-22T11:46:49;6.47;;;5.88;;
55659;SDS011;41534;53.550;9.964;2024-03-22T11:49:49;5.80;;;5.22;;
55659;SDS011;41534;53.550;9.964;2024-03-22T11:52:50;5.57;;;5.07;;
55659;SDS011;41534;53.550;9.964;2024-03-22T11:55:50;6.80;;;5.05;;
55659;SDS011;41534;53.550;9.964;2024-03-22T11:58:57;9.02;;;5.10;;
55659;SDS011;41534;53.550;9.964;2024-03-22T12:01:58;8.18;;;4.63;;
55659;SDS011;41534;53.550;9.964;2024-03-22T12:05:00;5.07;;;4.53;;
55659;SDS011;41534;53.550;9.964;2024-03-22T12:08:00;5.30;;;4.80;;
55659;SDS011;41534;53.550;9.964;2024-03-22T12:11:01;5.40;;;4.90;;
55659;SDS011;41534;53.550;9.964;2024-03-22T12:14:01;5.20;;;4.80;;
55659;SDS011;41534;53.550;9.964;2024-03-22T12:17:02;6.50;;;5.25;;
55659;SDS011;41534;53.550;9.964;2024-03-22T12:20:03;4.90;;;4.50;;
55659;SDS011;41534;53.550;9.964;2024-03-22T12:23:03;4.95;;;4.55;;
55659;SDS011;41534;53.550;9.964;2024-03-22T12:26:03;4.90;;;4.50;;
55659;SDS011;41534;53.550;9.964;2024-03-22T12:29:04;4.15;;;3.80;;
55659;SDS011;41534;53.550;9.964;2024-03-22T12:32:04;4.57;;;4.18;;
55659;SDS011;41534;53.550;9.964;2024-03-22T12:35:05;6.35;;;4.60;;
55659;SDS011;41534;53.550;9.964;2024-03-22T12:38:06;5.10;;;4.45;;
55659;SDS011;41534;53.550;9.964;2024-03-22T12:41:06;4.85;;;4.15;;
55659;SDS011;41534;53.550;9.964;2024-03-22T12:44:07;5.40;;;4.60;;
55659;SDS011;41534;53.550;9.964;2024-03-22T12:47:07;4.90;;;4.00;;
55659;SDS011;41534;53.550;9.964;2024-03-22T12:50:07;4.70;;;4.33;;
55659;SDS011;41534;53.550;9.964;2024-03-22T12:53:08;5.18;;;3.75;;
55659;SDS011;41534;53.550;9.964;2024-03-22T12:56:08;4.13;;;3.83;;
55659;SDS011;41534;53.550;9.964;2024-03-22T12:59:08;4.68;;;4.28;;
55659;SDS011;41534;53.550;9.964;2024-03-22T13:02:09;4.63;;;4.17;;
55659;SDS011;41534;53.550;9.964;2024-03-22T13:05:09;4.40;;;4.05;;
55659;SDS011;41534;53.550;9.964;2024-03-22T13:08:09;4.30;;;3.97;;
55659;SDS011;41534;53.550;9.964;2024-03-22T13:11:09;4.40;;;4.00;;
55659;SDS011;41534;53.550;9.964;2024-03-22T13:14:10;4.75;;;4.40;;
55659;SDS011;41534;53.550;9.964;2024-03-22T13:17:10;5.00;;;4.53;;
55659;SDS011;41534;53.550;9.964;2024-03-22T13:20:10;4.33;;;4.03;;
55659;SDS011;41534;53.550;9.964;2024-03-22T13:23:11;3.97;;;3.67;;
55659;SDS011;41534;53.550;9.964;2024-03-22T13:26:11;3.10;;;2.90;;
55659;SDS011;41534;53.550;9.964;2024-03-22T13:29:11;2.83;;;2.60;;
55659;SDS011;41534;53.550;9.964;2024-03-22T13:32:12;3.85;;;2.35;;
55659;SDS011;41534;53.550;9.964;2024-03-22T13:35:12;2.50;;;2.30;;
55659;SDS011;41534;53.550;9.964;2024-03-22T13:38:12;2.50;;;2.30;;
55659;SDS011;41534;53.550;9.964;2024-03-22T13:41:12;2.67;;;2.08;;
55659;SDS011;41534;53.550;9.964;2024-03-22T13:44:13;2.85;;;1.77;;
55659;SDS011;41534;53.550;9.964;2024-03-22T13:47:13;1.77;;;1.30;;
55659;SDS011;41534;53.550;9.964;2024-03-22T13:50:13;4.20;;;1.20;;
55659;SDS011;41534;53.550;9.964;2024-03-22T13:53:13;3.42;;;0.90;;
55659;SDS011;41534;53.550;9.964;2024-03-22T13:56:14;1.27;;;0.85;;
55659;SDS011;41534;53.550;9.964;2024-03-22T13:59:14;1.00;;;0.90;;
55659;SDS011;41534;53.550;9.964;2024-03-22T14:02:14;0.93;;;0.93;;
55659;SDS011;41534;53.550;9.964;2024-03-22T14:05:15;2.65;;;0.80;;
55659;SDS011;41534;53.550;9.964;2024-03-22T14:08:15;9.45;;;0.98;;
55659;SDS011;41534;53.550;9.964;2024-03-22T14:11:15;7.17;;;0.90;;
55659;SDS011;41534;53.550;9.964;2024-03-22T14:14:15;1.13;;;0.90;;
55659;SDS011;41534;53.550;9.964;2024-03-22T14:17:16;0.70;;;0.70;;
55659;SDS011;41534;53.550;9.964;2024-03-22T14:20:16;0.83;;;0.83;;
55659;SDS011;41534;53.550;9.964;2024-03-22T14:23:16;1.02;;;0.82;;
55659;SDS011;41534;53.550;9.964;2024-03-22T14:26:17;1.90;;;0.90;;
55659;SDS011;41534;53.550;9.964;2024-03-22T14:29:17;1.35;;;0.70;;
55659;SDS011;41534;53.550;9.964;2024-03-22T14:32:18;0.60;;;0.60;;
55659;SDS011;41534;53.550;9.964;2024-03-22T14:35:18;1.03;;;0.93;;
55659;SDS011;41534;53.550;9.964;2024-03-22T14:38:18;0.80;;;0.80;;
55659;SDS011;41534;53.550;9.964;2024-03-22T14:41:19;0.80;;;0.80;;
55659;SDS011;41534;53.550;9.964;2024-03-22T14:44:19;0.93;;;0.80;;
55659;SDS011;41534;53.550;9.964;2024-03-22T14:47:19;1.10;;;1.00;;
55659;SDS011;41534;53.550;9.964;2024-03-22T14:50:19;1.37;;;1.27;;
55659;SDS011;41534;53.550;9.964;2024-03-22T14:53:20;1.10;;;1.00;;
55659;SDS011;41534;53.550;9.964;2024-03-22T14:56:20;1.52;;;1.38;;
55659;SDS011;41534;53.550;9.964;2024-03-22T14:59:21;1.60;;;1.50;;
55659;SDS011;41534;53.550;9.964;2024-03-22T15:02:21;1.40;;;1.30;;
55659;SDS011;41534;53.550;9.964;2024-03-22T15:05:21;1.33;;;1.23;;
55659;SDS011;41534;53.550;9.964;2024-03-22T15:08:22;1.60;;;1.50;;
55659;SDS011;41534;53.550;9.964;2024-03-22T15:11:23;1.50;;;1.40;;
55659;SDS011;41534;53.550;9.964;2024-03-22T15:14:23;1.70;;;1.50;;
55659;SDS011;41534;53.550;9.964;2024-03-22T15:17:23;1.80;;;1.70;;
55659;SDS011;41534;53.550;9.964;2024-03-22T15:20:23;1.70;;;1.60;;
55659;SDS011;41534;53.550;9.964;2024-03-22T15:23:24;1.60;;;1.50;;
55659;SDS011;41534;53.550;9.964;2024-03-22T15:26:24;2.65;;;1.40;;
55659;SDS011;41534;53.550;9.964;2024-03-22T15:29:24;2.92;;;1.90;;
55659;SDS011;41534;53.550;9.964;2024-03-22T15:32:25;3.43;;;1.50;;
55659;SDS011;41534;53.550;9.964;2024-03-22T15:35:25;1.75;;;1.50;;
55659;SDS011;41534;53.550;9.964;2024-03-22T15:38:25;1.80;;;1.70;;
55659;SDS011;41534;53.550;9.964;2024-03-22T15:41:26;1.73;;;1.63;;
55659;SDS011;41534;53.550;9.964;2024-03-22T15:44:26;1.55;;;1.45;;
55659;SDS011;41534;53.550;9.964;2024-03-22T15:47:26;1.63;;;1.50;;
55659;SDS011;41534;53.550;9.964;2024-03-22T15:50:26;1.88;;;1.63;;
55659;SDS011;41534;53.550;9.964;2024-03-22T15:53:27;1.77;;;1.58;;
55659;SDS011;41534;53.550;9.964;2024-03-22T15:56:27;3.40;;;1.55;;
55659;SDS011;41534;53.550;9.964;2024-03-22T15:59:27;1.50;;;1.40;;
55659;SDS011;41534;53.550;9.964;2024-03-22T16:02:28;1.50;;;1.40;;
55659;SDS011;41534;53.550;9.964;2024-03-22T16:05:28;1.63;;;1.52;;
55659;SDS011;41534;53.550;9.964;2024-03-22T16:08:28;1.70;;;1.60;;
55659;SDS011;41534;53.550;9.964;2024-03-22T16:11:28;1.87;;;1.77;;
55659;SDS011;41534;53.550;9.964;2024-03-22T16:14:29;3.33;;;1.90;;
55659;SDS011;41534;53.550;9.964;2024-03-22T16:17:29;2.92;;;2.03;;
55659;SDS011;41534;53.550;9.964;2024-03-22T16:20:30;1.70;;;1.60;;
55659;SDS011;41534;53.550;9.964;2024-03-22T16:23:30;1.80;;;1.70;;
55659;SDS011;41534;53.550;9.964;2024-03-22T16:26:31;1.80;;;1.65;;
55659;SDS011;41534;53.550;9.964;2024-03-22T16:29:31;2.65;;;1.58;;
55659;SDS011;41534;53.550;9.964;2024-03-22T16:32:31;1.77;;;1.65;;
55659;SDS011;41534;53.550;9.964;2024-03-22T16:35:32;2.40;;;2.20;;
55659;SDS011;41534;53.550;9.964;2024-03-22T16:38:32;2.60;;;2.40;;
55659;SDS011;41534;53.550;9.964;2024-03-22T16:41:32;2.42;;;2.22;;
55659;SDS011;41534;53.550;9.964;2024-03-22T16:44:33;2.72;;;2.53;;
55659;SDS011;41534;53.550;9.964;2024-03-22T16:47:33;2.65;;;2.45;;
55659;SDS011;41534;53.550;9.964;2024-03-22T16:50:33;3.42;;;2.53;;
55659;SDS011;41534;53.550;9.964;2024-03-22T16:53:33;2.40;;;2.20;;
55659;SDS011;41534;53.550;9.964;2024-03-22T16:56:34;2.33;;;2.22;;
55659;SDS011;41534;53.550;9.964;2024-03-22T16:59:35;2.83;;;2.45;;
55659;SDS011;41534;53.550;9.964;2024-03-22T17:02:35;2.60;;;2.40;;
55659;SDS011;41534;53.550;9.964;2024-03-22T17:05:36;2.65;;;2.50;;
55659;SDS011;41534;53.550;9.964;2024-03-22T17:08:36;3.65;;;2.60;;
55659;SDS011;41534;53.550;9.964;2024-03-22T17:11:36;4.25;;;2.20;;
55659;SDS011;41534;53.550;9.964;2024-03-22T17:14:37;3.00;;;2.78;;
55659;SDS011;41534;53.550;9.964;2024-03-22T17:17:37;3.80;;;2.77;;
55659;SDS011;41534;53.550;9.964;2024-03-22T17:20:38;2.60;;;2.40;;
55659;SDS011;41534;53.550;9.964;2024-03-22T17:23:38;2.67;;;2.47;;
55659;SDS011;41534;53.550;9.964;2024-03-22T17:26:38;2.70;;;2.50;;
55659;SDS011;41534;53.550;9.964;2024-03-22T17:29:39;2.67;;;2.47;;
55659;SDS011;41534;53.550;9.964;2024-03-22T17:32:39;3.17;;;2.47;;
55659;SDS011;41534;53.550;9.964;2024-03-22T17:35:39;6.68;;;4.40;;
55659;SDS011;41534;53.550;9.964;2024-03-22T17:38:39;10.65;;;5.20;;
55659;SDS011;41534;53.550;9.964;2024-03-22T17:41:40;13.45;;;5.07;;
55659;SDS011;41534;53.550;9.964;2024-03-22T17:44:40;13.43;;;5.53;;
55659;SDS011;41534;53.550;9.964;2024-03-22T17:47:40;11.85;;;5.32;;
55659;SDS011;41534;53.550;9.964;2024-03-22T17:50:41;14.20;;;6.65;;
55659;SDS011;41534;53.550;9.964;2024-03-22T17:53:42;16.65;;;6.18;;
55659;SDS011;41534;53.550;9.964;2024-03-22T17:56:42;14.52;;;6.03;;
55659;SDS011;41534;53.550;9.964;2024-03-22T17:59:42;21.30;;;6.90;;
55659;SDS011;41534;53.550;9.964;2024-03-22T18:02:43;14.45;;;5.53;;
55659;SDS011;41534;53.550;9.964;2024-03-22T18:05:43;13.90;;;5.78;;
55659;SDS011;41534;53.550;9.964;2024-03-22T18:08:43;16.88;;;6.50;;